createdAt,value
2017-10-08T00:00:20.963Z,4.10
2017-10-08T00:02:49.200Z,2.90
2017-10-08T00:05:18.211Z,7.23
2017-10-08T00:07:47.212Z,4.27
2017-10-08T00:10:15.449Z,5.03
2017-10-08T00:12:43.698Z,3.20
2017-10-08T00:15:11.945Z,4.53
2017-10-08T00:17:40.181Z,4.30
2017-10-08T00:20:08.449Z,6.40
2017-10-08T00:22:36.686Z,3.87
2017-10-08T00:25:04.937Z,2.77
2017-10-08T00:27:33.933Z,4.07
2017-10-08T00:30:02.176Z,7.23
2017-10-08T00:32:30.402Z,5.70
2017-10-08T00:34:58.649Z,3.90
2017-10-08T00:37:27.647Z,5.47
2017-10-08T00:39:55.890Z,4.17
2017-10-08T00:42:24.126Z,4.30
2017-10-08T00:44:52.383Z,4.00
2017-10-08T00:47:20.613Z,5.13
2017-10-08T00:49:48.856Z,3.30
2017-10-08T00:52:17.092Z,3.20
2017-10-08T00:54:46.096Z,5.70
2017-10-08T00:57:14.339Z,6.07
2017-10-08T00:59:42.570Z,7.20
2017-10-08T01:02:10.812Z,3.40
2017-10-08T01:04:39.807Z,5.13
2017-10-08T01:07:08.060Z,5.30
2017-10-08T01:09:36.290Z,4.77
2017-10-08T01:12:04.537Z,5.60
2017-10-08T01:14:32.775Z,4.93
2017-10-08T01:17:01.022Z,7.20
2017-10-08T01:19:29.254Z,8.27
2017-10-08T01:21:57.517Z,18.60
2017-10-08T01:24:26.527Z,7.80
2017-10-08T01:26:54.767Z,6.07
2017-10-08T01:29:23.015Z,6.87
2017-10-08T01:31:51.242Z,5.30
2017-10-08T01:34:20.249Z,9.80
2017-10-08T01:36:48.481Z,5.30
2017-10-08T01:39:16.731Z,5.73
2017-10-08T01:41:44.962Z,6.50
2017-10-08T01:44:13.975Z,5.20
2017-10-08T01:46:42.204Z,5.30
2017-10-08T01:49:10.438Z,5.63
2017-10-08T01:51:38.674Z,6.33
2017-10-08T01:54:07.678Z,5.60
2017-10-08T01:56:35.977Z,4.60
2017-10-08T01:59:04.237Z,5.60
2017-10-08T02:01:32.474Z,5.73
2017-10-08T02:04:00.714Z,6.63
2017-10-08T02:06:28.957Z,3.37
2017-10-08T02:08:57.193Z,4.80
2017-10-08T02:11:25.435Z,4.10
2017-10-08T02:13:53.667Z,5.13
2017-10-08T02:16:22.678Z,2.90
2017-10-08T02:18:50.914Z,5.07
2017-10-08T02:21:19.166Z,3.73
2017-10-08T02:23:47.398Z,4.03
2017-10-08T02:26:15.646Z,4.20
2017-10-08T02:28:43.882Z,2.47
2017-10-08T02:31:12.131Z,3.20
2017-10-08T02:33:40.369Z,4.40
2017-10-08T02:36:08.615Z,3.23
2017-10-08T02:38:36.854Z,3.67
2017-10-08T02:41:05.110Z,2.83
2017-10-08T02:43:34.110Z,3.23
2017-10-08T02:46:03.112Z,2.60
2017-10-08T02:48:31.353Z,2.60
2017-10-08T02:50:59.581Z,2.50
2017-10-08T02:53:27.832Z,2.67
2017-10-08T02:55:56.060Z,2.87
2017-10-08T02:58:24.305Z,2.60
2017-10-08T03:00:52.546Z,4.03
2017-10-08T03:03:21.551Z,2.63
2017-10-08T03:05:49.789Z,2.70
2017-10-08T03:08:18.037Z,2.53
2017-10-08T03:10:46.270Z,2.70
2017-10-08T03:13:15.278Z,2.10
2017-10-08T03:15:43.510Z,2.10
2017-10-08T03:18:11.749Z,2.30
2017-10-08T03:20:39.989Z,2.33
2017-10-08T03:23:09.010Z,3.30
2017-10-08T03:25:37.252Z,2.20
2017-10-08T03:28:06.247Z,1.97
2017-10-08T03:30:35.259Z,2.50
2017-10-08T03:33:03.499Z,2.10
2017-10-08T03:35:32.510Z,3.00
2017-10-08T03:38:01.515Z,2.50
2017-10-08T03:40:29.763Z,2.50
2017-10-08T03:42:58.763Z,1.87
2017-10-08T03:45:27.772Z,1.83
2017-10-08T03:47:56.006Z,2.10
2017-10-08T03:50:24.254Z,2.10
2017-10-08T03:52:52.493Z,2.00
2017-10-08T03:55:20.740Z,1.30
2017-10-08T03:57:48.975Z,1.70
2017-10-08T04:00:17.220Z,1.80
2017-10-08T04:02:45.455Z,1.80
2017-10-08T04:05:13.717Z,3.47
2017-10-08T04:07:41.954Z,3.47
2017-10-08T04:10:10.193Z,1.10
2017-10-08T04:12:38.442Z,3.70
2017-10-08T04:15:06.681Z,1.90
2017-10-08T04:17:34.927Z,2.00
2017-10-08T04:20:03.930Z,2.37
2017-10-08T04:22:32.940Z,0.80
2017-10-08T04:25:01.179Z,1.50
2017-10-08T04:27:29.418Z,2.13
2017-10-08T04:29:57.649Z,2.60
2017-10-08T04:32:26.662Z,1.90
2017-10-08T04:34:54.896Z,2.80
2017-10-08T04:37:23.904Z,2.33
2017-10-08T04:39:52.914Z,2.53
2017-10-08T04:42:21.160Z,2.80
2017-10-08T04:44:49.389Z,3.90
2017-10-08T04:47:17.637Z,3.10
2017-10-08T04:49:45.880Z,3.40
2017-10-08T04:52:14.127Z,3.67
2017-10-08T04:54:42.366Z,3.63
2017-10-08T04:57:10.598Z,2.80
2017-10-08T04:59:38.843Z,2.47
2017-10-08T05:02:07.078Z,4.93
2017-10-08T05:04:36.089Z,4.23
2017-10-08T05:07:04.333Z,4.03
2017-10-08T05:09:33.344Z,4.20
2017-10-08T05:12:01.582Z,5.20
2017-10-08T05:14:29.833Z,5.13
2017-10-08T05:16:58.068Z,5.37
2017-10-08T05:19:26.322Z,4.60
2017-10-08T05:21:54.559Z,5.23
2017-10-08T05:24:22.801Z,6.17
2017-10-08T05:26:51.046Z,4.93
2017-10-08T05:29:19.291Z,5.97
2017-10-08T05:31:47.543Z,5.10
2017-10-08T05:34:15.792Z,5.17
2017-10-08T05:36:44.801Z,4.33
2017-10-08T05:39:13.034Z,3.63
2017-10-08T05:41:41.278Z,4.90
2017-10-08T05:44:10.286Z,4.77
2017-10-08T05:46:38.529Z,5.43
2017-10-08T05:49:06.761Z,5.20
2017-10-08T05:51:35.775Z,4.27
2017-10-08T05:54:04.009Z,6.13
2017-10-08T05:56:32.253Z,5.47
2017-10-08T05:59:00.495Z,6.10
2017-10-08T06:01:29.505Z,5.77
2017-10-08T06:03:57.746Z,5.23
2017-10-08T06:06:25.988Z,6.73
2017-10-08T06:08:54.232Z,8.00
2017-10-08T06:11:22.476Z,6.30
2017-10-08T06:13:51.473Z,9.37
2017-10-08T06:16:20.485Z,6.90
2017-10-08T06:18:48.731Z,6.00
2017-10-08T06:21:16.977Z,6.47
2017-10-08T06:23:45.734Z,6.30
2017-10-08T06:26:14.039Z,7.03
2017-10-08T06:28:42.321Z,6.67
2017-10-08T06:31:10.567Z,5.83
2017-10-08T06:33:38.814Z,6.80
2017-10-08T06:36:07.826Z,5.53
2017-10-08T06:38:36.076Z,5.40
2017-10-08T06:41:05.077Z,6.40
2017-10-08T06:43:33.329Z,6.50
2017-10-08T06:46:01.574Z,5.50
2017-10-08T06:48:30.596Z,5.97
2017-10-08T06:50:58.837Z,6.63
2017-10-08T06:53:27.856Z,8.93
2017-10-08T06:55:56.101Z,6.90
2017-10-08T06:58:24.355Z,6.37
2017-10-08T07:00:52.594Z,4.73
2017-10-08T07:03:20.840Z,6.27
2017-10-08T07:05:49.085Z,6.67
2017-10-08T07:08:17.334Z,4.80
2017-10-08T07:10:46.341Z,5.10
2017-10-08T07:13:14.606Z,5.47
2017-10-08T07:15:42.857Z,4.60
2017-10-08T07:18:11.109Z,3.10
2017-10-08T07:20:39.429Z,3.20
2017-10-08T07:23:08.449Z,3.97
2017-10-08T07:25:36.701Z,4.40
2017-10-08T07:28:05.709Z,4.93
2017-10-08T07:30:33.962Z,3.33
2017-10-08T07:33:02.999Z,3.43
2017-10-08T07:35:31.228Z,2.63
2017-10-08T07:38:00.250Z,2.40
2017-10-08T07:40:28.507Z,2.70
2017-10-08T07:42:57.528Z,4.07
2017-10-08T07:45:25.771Z,2.87
2017-10-08T07:47:54.787Z,2.63
2017-10-08T07:50:23.035Z,3.07
2017-10-08T07:52:52.054Z,2.43
2017-10-08T07:55:20.302Z,3.00
2017-10-08T07:57:49.322Z,2.23
2017-10-08T08:00:17.565Z,2.33
2017-10-08T08:02:46.585Z,3.27
2017-10-08T08:05:14.874Z,2.70
2017-10-08T08:07:43.114Z,2.47
2017-10-08T08:10:12.136Z,2.50
2017-10-08T08:12:40.385Z,2.87
2017-10-08T08:15:09.406Z,2.80
2017-10-08T08:17:37.686Z,2.70
2017-10-08T08:20:05.917Z,2.87
2017-10-08T08:22:34.170Z,2.33
2017-10-08T08:25:03.925Z,2.30
2017-10-08T08:27:32.178Z,3.20
2017-10-08T08:30:00.421Z,2.97
2017-10-08T08:32:28.683Z,2.70
2017-10-08T08:34:56.947Z,3.10
2017-10-08T08:37:25.202Z,4.40
2017-10-08T08:39:53.449Z,3.20
2017-10-08T08:42:21.705Z,2.60
2017-10-08T08:44:49.949Z,3.30
2017-10-08T08:47:18.209Z,3.07
2017-10-08T08:49:46.457Z,2.60
2017-10-08T08:52:15.486Z,2.60
2017-10-08T08:54:43.730Z,4.27
2017-10-08T08:57:12.753Z,4.97
2017-10-08T08:59:41.002Z,3.30
2017-10-08T09:02:10.027Z,2.87
2017-10-08T09:04:38.269Z,2.70
2017-10-08T09:07:07.286Z,2.00
2017-10-08T09:09:35.537Z,2.77
2017-10-08T09:12:04.563Z,2.80
2017-10-08T09:14:32.813Z,2.50
2017-10-08T09:17:01.850Z,6.93
2017-10-08T09:19:30.086Z,2.03
2017-10-08T09:21:59.103Z,3.50
2017-10-08T09:24:27.347Z,3.07
2017-10-08T09:26:56.368Z,4.23
2017-10-08T09:29:24.613Z,5.10
2017-10-08T09:31:53.625Z,3.20
2017-10-08T09:34:21.869Z,4.80
2017-10-08T09:36:50.119Z,2.10
2017-10-08T09:39:18.369Z,2.53
2017-10-08T09:41:47.383Z,2.03
2017-10-08T09:44:15.634Z,6.40
2017-10-08T09:46:44.641Z,2.10
2017-10-08T09:49:12.909Z,3.17
2017-10-08T09:51:41.158Z,2.83
2017-10-08T09:54:09.417Z,2.73
2017-10-08T09:56:37.666Z,2.70
2017-10-08T09:59:05.915Z,2.40
2017-10-08T10:01:34.153Z,2.47
2017-10-08T10:04:02.413Z,3.13
2017-10-08T10:06:30.654Z,3.30
2017-10-08T10:08:58.923Z,2.67
2017-10-08T10:11:27.170Z,3.40
2017-10-08T10:13:56.186Z,4.17
2017-10-08T10:16:24.437Z,2.87
2017-10-08T10:18:53.449Z,2.77
2017-10-08T10:21:21.697Z,2.53
2017-10-08T10:23:49.951Z,2.60
2017-10-08T10:26:18.201Z,2.47
2017-10-08T10:28:46.464Z,3.00
2017-10-08T10:31:14.700Z,3.73
2017-10-08T10:33:42.953Z,3.73
2017-10-08T10:36:11.202Z,3.00
2017-10-08T10:38:39.454Z,3.50
2017-10-08T10:41:07.701Z,3.23
2017-10-08T10:43:35.957Z,3.47
2017-10-08T10:46:04.206Z,3.30
2017-10-08T10:48:32.454Z,2.67
2017-10-08T10:51:00.704Z,2.40
2017-10-08T10:53:28.952Z,3.03
2017-10-08T10:55:57.194Z,2.23
2017-10-08T10:58:25.441Z,2.70
2017-10-08T11:00:54.453Z,3.10
2017-10-08T11:03:22.703Z,2.77
2017-10-08T11:05:51.710Z,3.30
2017-10-08T11:08:20.730Z,7.07
2017-10-08T11:10:48.984Z,2.20
2017-10-08T11:13:17.231Z,2.63
2017-10-08T11:15:45.478Z,2.27
2017-10-08T11:18:18.294Z,2.20
2017-10-08T11:20:49.776Z,3.00
2017-10-08T11:23:40.104Z,3.07
2017-10-08T11:26:09.216Z,5.80
2017-10-08T11:28:37.595Z,2.03
2017-10-08T11:31:06.877Z,6.10
2017-10-08T11:33:35.987Z,2.57
2017-10-08T11:36:04.329Z,2.80
2017-10-08T11:38:39.515Z,2.00
2017-10-08T11:44:33.613Z,2.40
2017-10-08T11:47:04.466Z,2.10
2017-10-08T11:49:33.612Z,2.27
2017-10-08T11:52:01.936Z,2.33
2017-10-08T11:54:30.985Z,2.70
2017-10-08T11:57:00.173Z,2.03
2017-10-08T11:59:28.538Z,2.10
2017-10-08T12:01:56.945Z,1.63
2017-10-08T12:04:26.095Z,3.77
2017-10-08T12:06:54.443Z,2.77
2017-10-08T12:09:23.539Z,1.70
2017-10-08T12:11:52.660Z,4.20
2017-10-08T12:14:20.998Z,2.33
2017-10-08T12:16:49.377Z,3.80
2017-10-08T12:19:17.738Z,4.50
2017-10-08T12:21:46.118Z,2.40
2017-10-08T12:24:14.422Z,2.33
2017-10-08T12:26:43.521Z,2.80
2017-10-08T12:29:11.813Z,7.00
2017-10-08T12:31:40.829Z,4.85
2017-10-08T12:34:09.070Z,5.50
2017-10-08T12:36:37.319Z,1.67
2017-10-08T12:39:05.557Z,4.90
2017-10-08T12:41:33.810Z,2.60
2017-10-08T12:44:02.818Z,2.77
2017-10-08T12:46:31.077Z,3.60
2017-10-08T12:49:00.096Z,3.50
2017-10-08T12:51:28.331Z,3.60
2017-10-08T12:53:56.581Z,1.97
2017-10-08T12:56:24.832Z,5.93
2017-10-08T12:58:53.083Z,7.23
2017-10-08T13:01:21.331Z,2.17
2017-10-08T13:03:49.576Z,2.57
2017-10-08T13:06:17.826Z,4.10
2017-10-08T13:08:46.082Z,1.97
2017-10-08T13:11:14.327Z,1.60
2017-10-08T13:13:42.579Z,1.70
2017-10-08T13:16:10.822Z,2.07
2017-10-08T13:18:39.075Z,2.77
2017-10-08T13:21:08.087Z,4.20
2017-10-08T13:23:36.347Z,2.57
2017-10-08T13:26:05.358Z,3.80
2017-10-08T13:28:33.612Z,1.70
2017-10-08T13:31:01.871Z,3.00
2017-10-08T13:33:30.131Z,3.90
2017-10-08T13:35:58.377Z,1.90
2017-10-08T13:38:26.618Z,1.67
2017-10-08T13:40:54.878Z,1.90
2017-10-08T13:43:23.135Z,1.90
2017-10-08T13:45:51.392Z,2.00
2017-10-08T13:48:19.653Z,1.90
2017-10-08T13:50:47.899Z,2.70
2017-10-08T13:53:16.145Z,2.57
2017-10-08T13:55:44.399Z,2.20
2017-10-08T13:58:12.646Z,2.13
2017-10-08T14:00:40.897Z,4.33
2017-10-08T14:03:09.146Z,1.90
2017-10-08T14:05:37.394Z,2.50
2017-10-08T14:08:05.653Z,3.83
2017-10-08T14:10:33.903Z,2.77
2017-10-08T14:13:02.142Z,1.90
2017-10-08T14:15:30.411Z,2.30
2017-10-08T14:17:58.653Z,6.17
2017-10-08T14:20:26.901Z,2.63
2017-10-08T14:22:55.151Z,2.17
2017-10-08T14:25:23.394Z,2.13
2017-10-08T14:27:51.650Z,2.30
2017-10-08T14:30:19.896Z,2.33
2017-10-08T14:32:48.901Z,2.30
2017-10-08T14:35:17.141Z,1.83
2017-10-08T14:37:45.391Z,2.43
2017-10-08T14:40:13.639Z,2.03
2017-10-08T14:42:41.893Z,2.30
2017-10-08T14:45:10.898Z,1.70
2017-10-08T14:47:39.147Z,1.80
2017-10-08T14:50:08.158Z,1.47
2017-10-08T14:52:36.434Z,1.70
2017-10-08T14:55:04.685Z,1.17
2017-10-08T14:57:32.947Z,1.70
2017-10-08T15:00:01.195Z,1.90
2017-10-08T15:02:29.444Z,2.10
2017-10-08T15:04:57.694Z,1.70
2017-10-08T15:07:26.706Z,2.23
2017-10-08T15:09:54.955Z,2.07
2017-10-08T15:12:23.205Z,3.90
2017-10-08T15:14:51.453Z,2.53
2017-10-08T15:17:19.713Z,5.00
2017-10-08T15:19:47.979Z,3.10
2017-10-08T15:22:16.231Z,3.20
2017-10-08T15:24:45.253Z,2.40
2017-10-08T15:27:13.494Z,2.20
2017-10-08T15:29:41.783Z,3.10
2017-10-08T15:32:10.781Z,2.43
2017-10-08T15:34:39.074Z,2.30
2017-10-08T15:37:07.322Z,3.10
2017-10-08T15:39:36.354Z,2.63
2017-10-08T15:42:04.627Z,2.37
2017-10-08T15:44:32.865Z,4.73
2017-10-08T15:47:01.894Z,2.73
2017-10-08T15:49:30.146Z,2.70
2017-10-08T15:51:59.172Z,3.40
2017-10-08T15:54:38.091Z,5.30
2017-10-08T15:57:20.393Z,2.80
2017-10-08T15:59:50.641Z,3.67
2017-10-08T16:02:19.026Z,4.63
2017-10-08T16:04:49.378Z,4.53
2017-10-08T16:07:18.586Z,3.63
2017-10-08T16:09:47.557Z,2.73
2017-10-08T16:12:15.941Z,3.03
2017-10-08T16:14:44.294Z,2.93
2017-10-08T16:17:14.174Z,2.47
2017-10-08T16:19:42.531Z,2.97
2017-10-08T16:22:11.999Z,2.50
2017-10-08T16:24:41.512Z,3.33
2017-10-08T16:27:09.813Z,2.90
2017-10-08T16:29:38.112Z,2.87
2017-10-08T16:32:07.158Z,2.23
2017-10-08T16:34:36.587Z,2.27
2017-10-08T16:37:04.964Z,3.93
2017-10-08T16:39:43.029Z,2.27
2017-10-08T16:42:22.085Z,2.30
2017-10-08T16:44:50.504Z,5.20
2017-10-08T16:47:18.775Z,2.00
2017-10-08T16:49:47.058Z,5.10
2017-10-08T16:52:23.581Z,3.33
2017-10-08T16:54:51.941Z,2.43
2017-10-08T16:57:21.075Z,4.50
2017-10-08T16:59:49.394Z,2.83
2017-10-08T17:02:18.502Z,3.10
2017-10-08T17:04:47.589Z,3.63
2017-10-08T17:07:16.664Z,3.47
2017-10-08T17:09:45.746Z,4.37
2017-10-08T17:12:14.042Z,2.57
2017-10-08T17:14:44.560Z,2.70
2017-10-08T17:17:17.350Z,2.80
2017-10-08T17:26:16.159Z,3.53
2017-10-08T17:28:44.545Z,4.10
2017-10-08T17:31:12.877Z,4.70
2017-10-08T17:33:41.181Z,4.73
2017-10-08T17:36:09.505Z,7.47
2017-10-08T17:38:38.624Z,5.10
2017-10-08T17:41:06.972Z,5.50
2017-10-08T17:43:37.139Z,4.90
2017-10-08T17:46:05.486Z,5.40
2017-10-08T17:48:34.578Z,6.70
2017-10-08T17:51:03.589Z,9.73
2017-10-08T17:53:31.853Z,7.23
2017-10-08T17:56:00.101Z,8.37
2017-10-08T17:58:28.353Z,6.90
2017-10-08T18:00:56.602Z,6.17
2017-10-08T18:03:24.854Z,7.03
2017-10-08T18:05:53.102Z,8.13
2017-10-08T18:08:21.349Z,9.47
2017-10-08T18:10:49.598Z,9.60
2017-10-08T18:13:17.853Z,7.07
2017-10-08T18:15:46.954Z,11.87
2017-10-08T18:18:15.213Z,8.30
2017-10-08T18:20:44.225Z,7.97
2017-10-08T18:23:12.471Z,9.77
2017-10-08T18:25:40.726Z,6.07
2017-10-08T18:28:08.978Z,8.33
2017-10-08T18:30:37.276Z,8.60
2017-10-08T18:33:05.531Z,6.80
2017-10-08T18:35:33.780Z,6.40
2017-10-08T18:38:02.041Z,8.97
2017-10-08T18:40:31.057Z,6.43
2017-10-08T18:42:59.300Z,7.77
2017-10-08T18:45:27.592Z,5.90
2017-10-08T18:47:55.836Z,6.10
2017-10-08T18:50:24.877Z,5.93
2017-10-08T18:52:53.142Z,6.63
2017-10-08T18:55:21.434Z,6.10
2017-10-08T18:57:49.684Z,12.87
2017-10-08T19:00:17.937Z,8.90
2017-10-08T19:02:46.184Z,5.60
2017-10-08T19:05:14.441Z,6.63
2017-10-08T19:07:42.693Z,8.30
2017-10-08T19:10:10.980Z,5.53
2017-10-08T19:12:39.293Z,7.17
2017-10-08T19:15:08.308Z,7.60
2017-10-08T19:17:37.357Z,7.73
2017-10-08T19:20:05.615Z,5.97
2017-10-08T19:22:33.867Z,10.40
2017-10-08T19:25:02.118Z,7.43
2017-10-08T19:27:30.382Z,8.13
2017-10-08T19:29:58.666Z,7.90
2017-10-08T19:32:26.917Z,6.90
2017-10-08T19:34:55.186Z,7.57
2017-10-08T19:37:24.212Z,9.17
2017-10-08T19:39:52.486Z,7.10
2017-10-08T19:42:20.727Z,7.70
2017-10-08T19:44:49.022Z,8.13
2017-10-08T19:47:17.270Z,10.03
2017-10-08T19:49:45.526Z,8.13
2017-10-08T19:52:13.772Z,9.27
2017-10-08T19:54:42.022Z,10.33
2017-10-08T19:57:10.273Z,11.60
2017-10-08T19:59:38.530Z,12.97
2017-10-08T20:02:07.543Z,13.20
2017-10-08T20:04:35.950Z,16.00
2017-10-08T20:07:04.240Z,13.87
2017-10-08T20:09:32.598Z,10.00
2017-10-08T20:12:00.842Z,11.67
2017-10-08T20:14:29.867Z,13.60
2017-10-08T20:16:58.123Z,11.70
2017-10-08T20:19:26.382Z,8.50
2017-10-08T20:21:55.465Z,10.33
2017-10-08T20:24:24.525Z,8.37
2017-10-08T20:26:52.905Z,14.80
2017-10-08T20:29:21.156Z,9.63
2017-10-08T20:31:49.398Z,9.93
2017-10-08T20:34:18.585Z,10.93
2017-10-08T20:36:47.606Z,7.63
2017-10-08T20:39:15.853Z,7.70
2017-10-08T20:41:44.103Z,6.50
2017-10-08T20:44:12.374Z,6.67
2017-10-08T20:46:40.628Z,6.97
2017-10-08T20:49:08.934Z,9.83
2017-10-08T20:51:37.186Z,9.70
2017-10-08T20:54:05.442Z,8.30
2017-10-08T20:56:33.743Z,6.30
2017-10-08T20:59:02.015Z,6.50
2017-10-08T21:01:30.315Z,9.20
2017-10-08T21:03:59.381Z,6.77
2017-10-08T21:06:27.630Z,6.33
2017-10-08T21:08:55.883Z,5.50
2017-10-08T21:11:24.901Z,6.13
2017-10-08T21:13:53.229Z,6.40
2017-10-08T21:16:21.485Z,4.80
2017-10-08T21:18:49.742Z,5.70
2017-10-08T21:21:18.003Z,5.57
2017-10-08T21:23:47.115Z,5.27
2017-10-08T21:26:15.365Z,7.57
2017-10-08T21:28:44.369Z,5.90
2017-10-08T21:31:12.626Z,6.37
2017-10-08T21:33:41.709Z,6.70
2017-10-08T21:36:14.516Z,8.37
2017-10-08T21:38:42.767Z,5.77
2017-10-08T21:41:11.786Z,7.17
2017-10-08T21:43:40.057Z,5.30
2017-10-08T21:46:08.320Z,8.00
2017-10-08T21:48:37.319Z,5.50
2017-10-08T21:51:06.363Z,5.90
2017-10-08T21:53:35.410Z,5.20
2017-10-08T21:56:03.689Z,5.17
2017-10-08T21:58:31.939Z,4.70
2017-10-08T22:01:00.216Z,4.33
2017-10-08T22:03:28.543Z,6.23
2017-10-08T22:05:56.791Z,4.73
2017-10-08T22:08:25.834Z,6.20
2017-10-08T22:10:54.087Z,5.17
2017-10-08T22:13:22.394Z,7.10
2017-10-08T22:15:50.646Z,5.13
2017-10-08T22:18:18.897Z,5.07
2017-10-08T22:20:47.159Z,5.93
2017-10-08T22:23:16.165Z,5.03
2017-10-08T22:25:44.426Z,5.47
2017-10-08T22:28:13.450Z,4.80
2017-10-08T22:30:41.686Z,4.33
2017-10-08T22:33:10.699Z,5.73
2017-10-08T22:35:38.953Z,5.17
2017-10-08T22:38:08.061Z,4.73
2017-10-08T22:40:36.493Z,8.10
2017-10-08T22:43:04.722Z,5.03
2017-10-08T22:45:32.971Z,3.97
2017-10-08T22:48:01.212Z,5.47
2017-10-08T22:50:29.512Z,3.63
2017-10-08T22:52:57.750Z,5.70
2017-10-08T22:55:26.040Z,5.40
2017-10-08T22:57:54.274Z,7.23
2017-10-08T23:00:23.276Z,4.03
2017-10-08T23:02:51.527Z,4.70
2017-10-08T23:05:20.530Z,3.83
2017-10-08T23:07:49.540Z,4.30
2017-10-08T23:10:17.781Z,6.13
2017-10-08T23:12:46.802Z,3.57
2017-10-08T23:15:15.043Z,4.63
2017-10-08T23:17:43.293Z,5.73
2017-10-08T23:20:12.298Z,5.40
2017-10-08T23:22:40.548Z,3.67
2017-10-08T23:25:08.791Z,3.70
2017-10-08T23:27:37.045Z,7.00
2017-10-08T23:30:06.055Z,4.40
2017-10-08T23:32:34.308Z,5.23
2017-10-08T23:35:02.541Z,7.47
2017-10-08T23:37:31.563Z,5.77
2017-10-08T23:39:59.802Z,8.83
2017-10-08T23:42:28.055Z,3.97
2017-10-08T23:44:56.299Z,4.80
2017-10-08T23:47:24.545Z,4.43
2017-10-08T23:49:52.794Z,12.60
2017-10-08T23:52:21.050Z,11.10
2017-10-08T23:54:49.289Z,4.97
2017-10-08T23:57:17.545Z,5.57
2017-10-08T23:59:45.795Z,5.63
